createdAt,value
2019-03-22T07:00:36.510Z,73.12
2019-03-22T07:01:36.343Z,78.75
2019-03-22T07:02:36.187Z,78.75
2019-03-22T07:03:36.183Z,78.75
2019-03-22T07:04:36.243Z,78.75
2019-03-22T07:05:36.285Z,78.75
2019-03-22T07:06:36.118Z,84.38
2019-03-22T07:07:36.834Z,84.38
2019-03-22T07:08:36.230Z,84.38
2019-03-22T07:09:36.214Z,84.38
2019-03-22T07:10:36.317Z,90.00
2019-03-22T07:11:36.247Z,90.00
2019-03-22T07:12:36.199Z,90.00
2019-03-22T07:13:36.271Z,95.62
2019-03-22T07:14:36.195Z,95.62
2019-03-22T07:15:36.104Z,95.62
2019-03-22T07:16:36.263Z,95.62
2019-03-22T07:17:36.686Z,90.00
2019-03-22T07:18:36.052Z,95.62
2019-03-22T07:19:36.916Z,95.62
2019-03-22T07:20:36.004Z,95.62
2019-03-22T07:21:36.255Z,95.62
2019-03-22T07:22:35.915Z,95.62
2019-03-22T07:23:36.023Z,95.62
2019-03-22T07:24:35.908Z,101.25
2019-03-22T07:25:35.887Z,101.25
2019-03-22T07:26:35.981Z,101.25
2019-03-22T07:27:36.084Z,106.88
2019-03-22T07:28:36.282Z,106.88
2019-03-22T07:29:36.150Z,106.88
2019-03-22T07:30:35.892Z,106.88
2019-03-22T07:31:36.061Z,112.50
2019-03-22T07:32:35.879Z,112.50
2019-03-22T07:33:35.794Z,112.50
2019-03-22T07:34:35.811Z,112.50
2019-03-22T07:35:35.800Z,118.12
2019-03-22T07:36:35.843Z,118.12
2019-03-22T07:37:35.823Z,112.50
2019-03-22T07:38:35.745Z,118.12
2019-03-22T07:39:35.747Z,112.50
2019-03-22T07:40:35.901Z,112.50
2019-03-22T07:41:35.782Z,112.50
2019-03-22T07:42:35.857Z,106.88
2019-03-22T07:43:35.683Z,106.88
2019-03-22T07:44:35.660Z,106.88
2019-03-22T07:45:35.744Z,112.50
2019-03-22T07:46:35.717Z,112.50
2019-03-22T07:47:35.740Z,112.50
2019-03-22T07:48:35.692Z,112.50
2019-03-22T07:49:35.738Z,112.50
2019-03-22T07:50:35.713Z,118.12
2019-03-22T07:51:35.602Z,118.12
2019-03-22T07:52:35.894Z,118.12
2019-03-22T07:53:35.955Z,118.12
2019-03-22T07:54:35.768Z,118.12
2019-03-22T07:55:35.680Z,123.75
2019-03-22T07:56:35.768Z,123.75
2019-03-22T07:57:35.595Z,123.75
2019-03-22T07:58:35.808Z,129.38
2019-03-22T07:59:35.557Z,129.38
2019-03-22T08:00:35.550Z,129.38
2019-03-22T08:01:35.860Z,129.38
2019-03-22T08:02:35.485Z,129.38
2019-03-22T08:03:35.628Z,135.00
2019-03-22T08:04:35.561Z,135.00
2019-03-22T08:05:35.613Z,135.00
2019-03-22T08:06:35.479Z,135.00
2019-03-22T08:07:35.632Z,140.62
2019-03-22T08:08:35.489Z,140.62
2019-03-22T08:09:35.695Z,146.25
2019-03-22T08:10:35.525Z,146.25
2019-03-22T08:11:35.564Z,146.25
2019-03-22T08:12:35.547Z,146.25
2019-03-22T08:13:35.743Z,146.25
2019-03-22T08:14:35.473Z,146.25
2019-03-22T08:15:35.382Z,146.25
2019-03-22T08:16:35.315Z,151.88
2019-03-22T08:17:35.394Z,151.88
2019-03-22T08:18:35.369Z,157.50
2019-03-22T08:19:35.428Z,163.12
2019-03-22T08:20:35.301Z,157.50
2019-03-22T08:21:35.365Z,157.50
2019-03-22T08:22:35.394Z,157.50
2019-03-22T08:23:35.378Z,157.50
2019-03-22T08:24:35.502Z,163.12
2019-03-22T08:25:35.384Z,163.12
2019-03-22T08:26:35.412Z,163.12
2019-03-22T08:27:35.381Z,163.12
2019-03-22T08:28:35.625Z,163.12
2019-03-22T08:29:35.513Z,163.12
2019-03-22T08:30:42.889Z,157.50
2019-03-22T08:31:36.212Z,163.12
2019-03-22T08:32:35.285Z,157.50
2019-03-22T08:33:35.612Z,151.88
2019-03-22T08:34:35.303Z,157.50
2019-03-22T08:35:37.052Z,157.50
2019-03-22T08:36:35.391Z,157.50
2019-03-22T08:37:35.767Z,163.12
2019-03-22T08:38:35.291Z,157.50
2019-03-22T08:39:35.183Z,157.50
2019-03-22T08:40:35.415Z,163.12
2019-03-22T08:41:35.364Z,157.50
2019-03-22T08:42:35.713Z,168.75
2019-03-22T08:43:35.528Z,163.12
2019-03-22T08:44:35.841Z,168.75
2019-03-22T08:45:35.439Z,174.38
2019-03-22T08:46:35.252Z,174.38
2019-03-22T08:47:35.380Z,174.38
2019-03-22T08:48:35.946Z,180.00
2019-03-22T08:49:37.601Z,180.00
2019-03-22T08:50:39.545Z,180.00
2019-03-22T08:51:35.633Z,174.38
2019-03-22T08:52:35.366Z,185.62
2019-03-22T08:53:35.339Z,180.00
2019-03-22T08:54:38.211Z,180.00
2019-03-22T08:55:36.129Z,191.25
2019-03-22T08:56:36.242Z,196.88
2019-03-22T08:57:36.078Z,196.88
2019-03-22T08:58:34.954Z,196.88
2019-03-22T08:59:35.070Z,202.50
2019-03-22T09:00:39.545Z,208.12
2019-03-22T09:01:36.047Z,202.50
2019-03-22T09:02:34.926Z,208.12
2019-03-22T09:03:34.901Z,213.75
2019-03-22T09:04:34.925Z,225.00
2019-03-22T09:05:34.878Z,230.62
2019-03-22T09:06:34.870Z,230.62
2019-03-22T09:07:34.871Z,241.88
2019-03-22T09:08:34.904Z,241.88
2019-03-22T09:09:41.417Z,253.12
2019-03-22T09:10:35.974Z,258.75
2019-03-22T09:11:34.877Z,264.38
2019-03-22T09:12:34.760Z,281.25
2019-03-22T09:13:34.843Z,298.12
2019-03-22T09:14:34.956Z,303.75
2019-03-22T09:15:41.163Z,320.62
2019-03-22T09:16:35.895Z,331.88
2019-03-22T09:17:34.914Z,348.75
2019-03-22T09:18:34.903Z,365.62
2019-03-22T09:19:34.814Z,388.12
2019-03-22T09:20:35.079Z,388.12
2019-03-22T09:23:00.676Z,517.50
2019-03-22T09:24:07.985Z,866.25
2019-03-22T09:24:58.879Z,1321.88
2019-03-22T09:28:56.866Z,1305.00
2019-03-22T09:29:56.099Z,1423.12
2019-03-22T09:31:09.419Z,1164.38
2019-03-22T09:31:57.193Z,1170.00
2019-03-22T09:32:56.310Z,1035.00
2019-03-22T09:33:56.220Z,1327.50
2019-03-22T09:34:56.509Z,1406.25
2019-03-22T09:35:56.451Z,1406.25
2019-03-22T09:36:56.060Z,1428.75
2019-03-22T09:37:56.114Z,1524.38
2019-03-22T09:38:56.155Z,1546.88
2019-03-22T09:39:56.210Z,1518.75
2019-03-22T09:41:07.070Z,1715.62
2019-03-22T09:41:56.088Z,1861.88
2019-03-22T09:42:55.931Z,1957.50
2019-03-22T09:43:55.893Z,1991.25
2019-03-22T09:44:55.927Z,2193.75
2019-03-22T09:45:55.910Z,2520.00
2019-03-22T09:46:56.036Z,2390.62
2019-03-22T09:47:55.905Z,2373.75
2019-03-22T09:48:55.953Z,2176.88
2019-03-22T09:49:55.881Z,2182.50
2019-03-22T09:50:56.015Z,1693.12
2019-03-22T09:51:55.952Z,2025.00
2019-03-22T09:52:55.814Z,2182.50
2019-03-22T09:53:55.925Z,2137.50
2019-03-22T09:54:55.876Z,2385.00
2019-03-22T09:55:56.038Z,2559.38
2019-03-22T09:56:55.900Z,2559.38
2019-03-22T09:57:55.811Z,2289.38
2019-03-22T09:58:55.928Z,2255.62
2019-03-22T09:59:55.904Z,2103.75
2019-03-22T10:00:55.886Z,1760.62
2019-03-22T10:01:55.757Z,1822.50
2019-03-22T10:02:55.826Z,1805.62
2019-03-22T10:03:55.795Z,1957.50
2019-03-22T10:04:55.685Z,1878.75
2019-03-22T10:05:55.643Z,1614.38
2019-03-22T10:06:55.654Z,1423.12
2019-03-22T10:07:55.616Z,1406.25
2019-03-22T10:08:55.620Z,1389.38
2019-03-22T10:09:55.729Z,1530.00
2019-03-22T10:10:56.065Z,1389.38
2019-03-22T10:11:55.560Z,1417.50
2019-03-22T10:12:55.578Z,1366.88
2019-03-22T10:13:55.627Z,1383.75
2019-03-22T10:14:55.528Z,1417.50
2019-03-22T10:15:55.574Z,1552.50
2019-03-22T10:16:55.668Z,1501.88
2019-03-22T10:17:55.687Z,1788.75
2019-03-22T10:18:55.558Z,1822.50
2019-03-22T10:19:55.536Z,1861.88
2019-03-22T10:20:55.523Z,1760.62
2019-03-22T10:21:55.475Z,1636.88
2019-03-22T10:22:55.533Z,1546.88
2019-03-22T10:23:55.441Z,1839.38
2019-03-22T10:24:55.496Z,2075.62
2019-03-22T10:25:55.468Z,2126.25
2019-03-22T10:26:55.559Z,1940.62
2019-03-22T10:27:55.544Z,1496.25
2019-03-22T10:28:55.589Z,1383.75
2019-03-22T10:29:55.537Z,1575.00
2019-03-22T10:30:56.174Z,1839.38
2019-03-22T10:31:55.409Z,1884.38
2019-03-22T10:32:55.343Z,1665.00
2019-03-22T10:33:55.439Z,1327.50
2019-03-22T10:34:55.482Z,1535.62
2019-03-22T10:35:55.322Z,1642.50
2019-03-22T10:36:55.336Z,2306.25
2019-03-22T10:38:00.481Z,2126.25
2019-03-22T10:38:56.836Z,2176.88
2019-03-22T10:39:55.277Z,2030.62
2019-03-22T10:40:55.335Z,1777.50
2019-03-22T10:41:55.262Z,1704.38
2019-03-22T10:42:55.337Z,1479.38
2019-03-22T10:43:55.315Z,1372.50
2019-03-22T10:44:55.352Z,1530.00
2019-03-22T10:45:55.200Z,1068.75
2019-03-22T10:46:55.163Z,1147.50
2019-03-22T10:47:55.145Z,1125.00
2019-03-22T10:48:55.174Z,1366.88
2019-03-22T10:49:55.274Z,1546.88
2019-03-22T10:50:55.187Z,1310.62
2019-03-22T10:51:57.737Z,967.50
2019-03-22T10:52:55.105Z,1333.12
2019-03-22T10:53:55.079Z,2103.75
2019-03-22T10:54:55.081Z,2047.50
2019-03-22T10:55:55.086Z,1698.75
2019-03-22T10:56:55.093Z,1451.25
2019-03-22T10:57:55.574Z,1901.25
2019-03-22T10:58:55.049Z,1839.38
2019-03-22T10:59:55.020Z,1546.88
2019-03-22T11:00:55.010Z,1788.75
2019-03-22T11:02:03.230Z,1884.38
2019-03-22T11:02:56.004Z,1591.88
2019-03-22T11:03:55.085Z,1406.25
2019-03-22T11:04:55.007Z,1546.88
2019-03-22T11:05:54.953Z,1237.50
2019-03-22T11:06:54.943Z,984.38
2019-03-22T11:07:54.934Z,894.38
2019-03-22T11:08:54.963Z,759.38
2019-03-22T11:09:54.927Z,708.75
2019-03-22T11:10:54.914Z,1023.75
2019-03-22T11:11:54.943Z,1625.62
2019-03-22T11:12:54.882Z,1096.88
2019-03-22T11:13:54.871Z,1305.00
2019-03-22T11:14:54.861Z,1755.00
2019-03-22T11:15:54.852Z,1518.75
2019-03-22T11:16:54.877Z,1828.12
2019-03-22T11:17:54.832Z,1839.38
2019-03-22T11:18:54.840Z,1839.38
2019-03-22T11:19:54.837Z,1704.38
2019-03-22T11:21:04.465Z,1597.50
2019-03-22T11:21:55.788Z,1563.75
2019-03-22T11:22:54.789Z,1293.75
2019-03-22T11:23:54.771Z,984.38
2019-03-22T11:24:54.787Z,1158.75
2019-03-22T11:26:03.864Z,933.75
2019-03-22T11:26:55.735Z,798.75
2019-03-22T11:27:54.738Z,1113.75
2019-03-22T11:28:54.724Z,973.12
2019-03-22T11:29:54.739Z,1411.88
2019-03-22T11:31:01.142Z,1215.00
2019-03-22T11:31:55.687Z,1305.00
2019-03-22T11:32:54.681Z,1693.12
2019-03-22T11:33:54.708Z,1918.12
2019-03-22T11:34:54.892Z,1513.12
2019-03-22T11:35:54.973Z,1991.25
2019-03-22T11:36:54.647Z,2289.38
2019-03-22T11:37:54.643Z,2784.38
2019-03-22T11:38:54.649Z,2446.88
2019-03-22T11:39:54.633Z,2227.50
2019-03-22T11:40:54.593Z,1805.62
2019-03-22T11:41:54.601Z,1563.75
2019-03-22T11:42:54.580Z,1794.38
2019-03-22T11:43:54.608Z,1783.12
2019-03-22T11:44:54.557Z,1631.25
2019-03-22T11:45:54.546Z,1923.75
2019-03-22T11:46:54.596Z,2103.75
2019-03-22T11:47:54.528Z,2165.62
2019-03-22T11:48:54.537Z,1991.25
2019-03-22T11:49:54.504Z,1653.75
2019-03-22T11:50:54.506Z,1316.25
2019-03-22T11:51:54.480Z,1271.25
2019-03-22T11:52:54.469Z,1597.50
2019-03-22T11:53:54.487Z,2289.38
2019-03-22T11:54:54.448Z,2081.25
2019-03-22T11:55:54.497Z,2210.62
2019-03-22T11:56:54.429Z,2694.38
2019-03-22T11:57:54.419Z,2109.38
2019-03-22T11:58:54.407Z,1338.75
2019-03-22T11:59:54.429Z,1029.38
2019-03-22T12:00:54.418Z,1310.62
2019-03-22T12:01:54.390Z,1423.12
2019-03-22T12:02:54.365Z,1636.88
2019-03-22T12:03:54.351Z,1299.38
2019-03-22T12:04:54.371Z,1040.62
2019-03-22T12:05:54.363Z,843.75
2019-03-22T12:06:54.328Z,1018.12
2019-03-22T12:07:54.321Z,1113.75
2019-03-22T12:08:54.330Z,1546.88
2019-03-22T12:09:54.293Z,1530.00
2019-03-22T12:10:54.310Z,1710.00
2019-03-22T12:11:54.275Z,1653.75
2019-03-22T12:12:54.280Z,1513.12
2019-03-22T12:13:54.263Z,978.75
2019-03-22T12:14:54.242Z,787.50
2019-03-22T12:15:54.257Z,781.88
2019-03-22T12:16:54.248Z,922.50
2019-03-22T12:17:54.225Z,1108.12
2019-03-22T12:18:54.200Z,1428.75
2019-03-22T12:19:54.190Z,1395.00
2019-03-22T12:20:54.220Z,1237.50
2019-03-22T12:21:54.180Z,1468.12
2019-03-22T12:22:54.209Z,1878.75
2019-03-22T12:23:54.149Z,1265.62
2019-03-22T12:24:54.143Z,725.62
2019-03-22T12:25:54.161Z,455.62
2019-03-22T12:26:54.115Z,438.75
2019-03-22T12:27:54.106Z,450.00
2019-03-22T12:28:54.143Z,478.12
2019-03-22T12:29:54.092Z,663.75
2019-03-22T12:30:54.078Z,1755.00
2019-03-22T12:31:54.090Z,2756.25
2019-03-22T12:32:54.070Z,3099.38
2019-03-22T12:33:54.083Z,3105.00
2019-03-22T12:34:54.036Z,2936.25
2019-03-22T12:35:54.017Z,3251.25
2019-03-22T12:36:54.032Z,2908.12
2019-03-22T12:37:54.014Z,1861.88
2019-03-22T12:38:54.032Z,2463.75
2019-03-22T12:39:54.023Z,3217.50
2019-03-22T12:40:53.972Z,3121.88
2019-03-22T12:41:53.995Z,2925.00
2019-03-22T12:42:56.484Z,2925.00
2019-03-22T12:43:53.952Z,3037.50
2019-03-22T12:44:53.958Z,2581.88
2019-03-22T12:45:53.963Z,2120.62
2019-03-22T12:46:53.936Z,1906.88
2019-03-22T12:47:53.911Z,1800.00
2019-03-22T12:48:53.944Z,1068.75
2019-03-22T12:49:53.902Z,703.12
2019-03-22T12:50:53.887Z,652.50
2019-03-22T12:51:53.862Z,601.88
2019-03-22T12:52:53.876Z,1603.12
2019-03-22T12:53:53.867Z,1603.12
2019-03-22T12:54:53.842Z,1530.00
2019-03-22T12:55:53.854Z,2632.50
2019-03-22T12:56:53.807Z,2413.12
2019-03-22T12:57:53.841Z,1704.38
2019-03-22T12:58:53.798Z,1676.25
2019-03-22T12:59:53.790Z,1974.38
2019-03-22T13:00:53.770Z,2013.75
2019-03-22T13:01:53.764Z,2655.00
2019-03-22T13:02:53.804Z,2621.25
2019-03-22T13:03:53.744Z,2621.25
2019-03-22T13:04:53.731Z,2610.00
2019-03-22T13:05:53.720Z,1828.12
2019-03-22T13:06:54.044Z,1777.50
2019-03-22T13:07:53.703Z,1929.38
2019-03-22T13:08:53.793Z,933.75
2019-03-22T13:09:53.681Z,343.12
2019-03-22T13:10:53.676Z,343.12
2019-03-22T13:11:53.684Z,354.38
2019-03-22T13:12:53.663Z,303.75
2019-03-22T13:13:53.677Z,326.25
2019-03-22T13:14:53.638Z,776.25
2019-03-22T13:15:53.829Z,2025.00
2019-03-22T13:16:53.613Z,2193.75
2019-03-22T13:17:53.605Z,1800.00
2019-03-22T13:18:53.620Z,2131.88
2019-03-22T13:19:53.696Z,2604.38
2019-03-22T13:20:53.568Z,2610.00
2019-03-22T13:21:53.564Z,2649.38
2019-03-22T13:22:53.539Z,2851.88
2019-03-22T13:23:53.590Z,2171.25
2019-03-22T13:24:53.518Z,2548.12
2019-03-22T13:25:53.513Z,2137.50
2019-03-22T13:26:53.732Z,1721.25
2019-03-22T13:27:53.539Z,663.75
2019-03-22T13:28:53.485Z,461.25
2019-03-22T13:29:53.478Z,663.75
2019-03-22T13:30:53.470Z,1389.38
2019-03-22T13:31:53.523Z,1788.75
2019-03-22T13:32:53.542Z,1845.00
2019-03-22T13:33:53.586Z,1614.38
2019-03-22T13:34:53.454Z,1895.62
2019-03-22T13:35:53.513Z,2199.38
2019-03-22T13:36:53.439Z,1248.75
2019-03-22T13:37:53.472Z,652.50
2019-03-22T13:38:53.492Z,450.00
2019-03-22T13:39:53.427Z,354.38
2019-03-22T13:40:53.420Z,1440.00
2019-03-22T13:41:53.393Z,2311.88
2019-03-22T13:42:53.696Z,2216.25
2019-03-22T13:43:53.498Z,2278.12
2019-03-22T13:44:53.377Z,2148.75
2019-03-22T13:45:53.423Z,2227.50
2019-03-22T13:46:53.371Z,1828.12
2019-03-22T13:47:53.518Z,765.00
2019-03-22T13:48:57.898Z,1051.88
2019-03-22T13:49:53.363Z,1192.50
2019-03-22T13:50:53.322Z,832.50
2019-03-22T13:51:53.647Z,1091.25
2019-03-22T13:52:53.383Z,1181.25
2019-03-22T13:53:53.475Z,1603.12
2019-03-22T13:54:53.876Z,1305.00
2019-03-22T13:55:53.277Z,511.88
2019-03-22T13:56:53.569Z,855.00
2019-03-22T13:57:53.206Z,1558.12
2019-03-22T13:58:53.473Z,1293.75
2019-03-22T13:59:53.179Z,1051.88
2019-03-22T14:00:53.219Z,1018.12
2019-03-22T14:01:53.227Z,1006.88
2019-03-22T14:03:02.647Z,1338.75
2019-03-22T14:03:54.925Z,1018.12
2019-03-22T14:04:53.870Z,1378.12
2019-03-22T14:05:53.434Z,1631.25
2019-03-22T14:06:53.285Z,1203.75
2019-03-22T14:07:53.210Z,658.12
2019-03-22T14:08:53.207Z,860.62
2019-03-22T14:09:53.143Z,556.88
2019-03-22T14:10:53.090Z,635.62
2019-03-22T14:11:53.136Z,939.38
2019-03-22T14:12:53.110Z,821.25
2019-03-22T14:13:53.568Z,725.62
2019-03-22T14:14:53.486Z,585.00
2019-03-22T14:15:53.033Z,270.00
2019-03-22T14:16:54.036Z,298.12
2019-03-22T14:17:53.040Z,511.88
2019-03-22T14:18:54.037Z,365.62
2019-03-22T14:19:53.023Z,624.38
2019-03-22T14:20:52.962Z,961.88
2019-03-22T14:21:52.999Z,945.00
2019-03-22T14:22:53.946Z,984.38
2019-03-22T14:23:52.953Z,810.00
2019-03-22T14:24:52.942Z,590.62
2019-03-22T14:25:52.942Z,225.00
2019-03-22T14:26:52.925Z,416.25
2019-03-22T14:27:52.870Z,765.00
2019-03-22T14:28:53.070Z,579.38
2019-03-22T14:29:52.989Z,635.62
2019-03-22T14:30:52.920Z,731.25
2019-03-22T14:31:52.859Z,911.25
2019-03-22T14:32:52.867Z,703.12
2019-03-22T14:33:52.846Z,607.50
2019-03-22T14:34:52.848Z,253.12
2019-03-22T14:35:52.922Z,208.12
2019-03-22T14:36:57.379Z,247.50
2019-03-22T14:37:52.793Z,399.38
2019-03-22T14:38:52.839Z,641.25
2019-03-22T14:39:52.794Z,804.38
2019-03-22T14:40:52.822Z,1012.50
2019-03-22T14:41:53.304Z,1254.38
2019-03-22T14:42:52.840Z,1665.00
2019-03-22T14:43:52.882Z,2508.75
2019-03-22T14:44:52.841Z,1158.75
2019-03-22T14:45:52.767Z,585.00
2019-03-22T14:46:52.684Z,444.38
2019-03-22T14:47:52.782Z,292.50
2019-03-22T14:48:53.674Z,196.88
2019-03-22T14:49:52.784Z,253.12
2019-03-22T14:50:52.633Z,275.62
2019-03-22T14:51:52.663Z,320.62
2019-03-22T14:52:53.494Z,315.00
2019-03-22T14:53:52.587Z,388.12
2019-03-22T14:54:52.650Z,360.00
2019-03-22T14:55:52.644Z,360.00
2019-03-22T14:56:52.567Z,320.62
2019-03-22T14:57:52.659Z,343.12
2019-03-22T14:58:52.573Z,286.88
2019-03-22T14:59:58.834Z,286.88
2019-03-22T15:01:00.132Z,236.25
2019-03-22T15:01:52.604Z,225.00
2019-03-22T15:02:52.527Z,241.88
2019-03-22T15:04:00.086Z,348.75
2019-03-22T15:04:52.518Z,433.12
2019-03-22T15:05:52.682Z,410.62
2019-03-22T15:06:52.485Z,337.50
2019-03-22T15:07:52.486Z,337.50
2019-03-22T15:08:52.477Z,331.88
2019-03-22T15:09:52.488Z,348.75
2019-03-22T15:10:52.401Z,399.38
2019-03-22T15:11:52.468Z,483.75
2019-03-22T15:12:52.421Z,523.12
2019-03-22T15:13:52.799Z,540.00
2019-03-22T15:14:52.378Z,309.38
2019-03-22T15:15:52.760Z,275.62
2019-03-22T15:16:52.356Z,343.12
2019-03-22T15:17:52.351Z,281.25
2019-03-22T15:18:52.318Z,298.12
2019-03-22T15:19:52.388Z,343.12
2019-03-22T15:20:52.299Z,303.75
2019-03-22T15:21:52.288Z,258.75
2019-03-22T15:22:52.289Z,275.62
2019-03-22T15:23:52.270Z,247.50
2019-03-22T15:24:53.305Z,253.12
2019-03-22T15:25:52.246Z,270.00
2019-03-22T15:26:52.261Z,540.00
2019-03-22T15:27:52.234Z,922.50
2019-03-22T15:28:52.345Z,540.00
2019-03-22T15:29:52.211Z,523.12
2019-03-22T15:30:52.186Z,388.12
2019-03-22T15:31:52.189Z,478.12
2019-03-22T15:32:52.169Z,376.88
2019-03-22T15:34:00.072Z,163.12
2019-03-22T15:34:52.210Z,208.12
2019-03-22T15:35:52.260Z,191.25
2019-03-22T15:36:52.185Z,196.88
2019-03-22T15:37:52.190Z,163.12
2019-03-22T15:38:52.347Z,168.75
2019-03-22T15:39:52.110Z,157.50
2019-03-22T15:40:52.161Z,168.75
2019-03-22T15:41:52.074Z,168.75
2019-03-22T15:42:52.056Z,163.12
2019-03-22T15:43:52.154Z,157.50
2019-03-22T15:44:52.125Z,163.12
2019-03-22T15:45:52.238Z,151.88
2019-03-22T15:46:52.170Z,140.62
2019-03-22T15:47:53.129Z,151.88
2019-03-22T15:48:52.189Z,157.50
2019-03-22T15:49:52.019Z,157.50
2019-03-22T15:50:52.004Z,157.50
2019-03-22T15:51:52.029Z,151.88
2019-03-22T15:52:51.991Z,151.88
2019-03-22T15:53:52.008Z,157.50
2019-03-22T15:54:51.934Z,163.12
2019-03-22T15:55:52.008Z,163.12
2019-03-22T15:56:51.910Z,168.75
2019-03-22T15:57:52.017Z,168.75
2019-03-22T15:58:51.969Z,168.75
2019-03-22T15:59:52.112Z,168.75
2019-03-22T16:00:51.963Z,163.12
2019-03-22T16:01:52.111Z,163.12
2019-03-22T16:02:52.100Z,163.12
2019-03-22T16:03:52.309Z,168.75
2019-03-22T16:04:51.933Z,168.75
2019-03-22T16:05:51.983Z,163.12
2019-03-22T16:06:51.898Z,168.75
2019-03-22T16:07:51.964Z,168.75
2019-03-22T16:08:52.077Z,168.75
2019-03-22T16:09:52.021Z,168.75
2019-03-22T16:10:51.915Z,168.75
2019-03-22T16:11:51.909Z,174.38
2019-03-22T16:12:51.802Z,180.00
2019-03-22T16:13:51.785Z,174.38
2019-03-22T16:14:51.844Z,174.38
2019-03-22T16:15:54.651Z,168.75
2019-03-22T16:16:53.566Z,168.75
2019-03-22T16:17:51.713Z,168.75
2019-03-22T16:18:51.758Z,163.12
2019-03-22T16:19:51.927Z,163.12
2019-03-22T16:20:59.679Z,157.50
2019-03-22T16:21:52.827Z,157.50
2019-03-22T16:22:51.788Z,151.88
2019-03-22T16:23:51.696Z,151.88
2019-03-22T16:24:51.779Z,151.88
2019-03-22T16:25:51.793Z,146.25
2019-03-22T16:26:51.902Z,151.88
2019-03-22T16:27:51.735Z,151.88
2019-03-22T16:28:51.603Z,151.88
2019-03-22T16:29:51.826Z,146.25
2019-03-22T16:30:51.739Z,146.25
2019-03-22T16:31:51.802Z,146.25
2019-03-22T16:32:51.707Z,146.25
2019-03-22T16:33:54.825Z,140.62
2019-03-22T16:34:51.644Z,140.62
2019-03-22T16:35:51.615Z,129.38
2019-03-22T16:36:51.678Z,112.50
2019-03-22T16:37:51.599Z,106.88
2019-03-22T16:38:51.520Z,106.88
2019-03-22T16:39:51.500Z,101.25
2019-03-22T16:40:51.584Z,101.25
2019-03-22T16:41:51.647Z,101.25
2019-03-22T16:42:51.623Z,101.25
2019-03-22T16:43:51.602Z,106.88
2019-03-22T16:44:51.439Z,112.50
2019-03-22T16:45:51.543Z,112.50
2019-03-22T16:46:51.543Z,118.12
2019-03-22T16:47:51.764Z,123.75
2019-03-22T16:48:51.422Z,123.75
2019-03-22T16:49:51.625Z,123.75
2019-03-22T16:50:51.387Z,118.12
2019-03-22T16:51:52.438Z,118.12
2019-03-22T16:52:51.454Z,118.12
2019-03-22T16:53:51.811Z,118.12
2019-03-22T16:54:51.364Z,112.50
2019-03-22T16:55:51.350Z,112.50
2019-03-22T16:56:51.309Z,112.50
2019-03-22T16:57:51.287Z,112.50
2019-03-22T16:58:51.279Z,112.50
2019-03-22T16:59:51.405Z,112.50
2019-03-22T17:00:51.294Z,106.88
2019-03-22T17:01:51.551Z,106.88
2019-03-22T17:02:51.355Z,106.88
2019-03-22T17:03:51.205Z,95.62
2019-03-22T17:04:51.975Z,95.62
2019-03-22T17:05:52.326Z,95.62
2019-03-22T17:06:51.281Z,90.00
2019-03-22T17:07:51.309Z,90.00
2019-03-22T17:08:51.179Z,73.12
2019-03-22T17:09:51.137Z,73.12
2019-03-22T17:10:51.177Z,61.88
2019-03-22T17:11:51.120Z,61.88
2019-03-22T17:12:51.110Z,56.25
2019-03-22T17:13:51.102Z,50.62
2019-03-22T17:14:51.079Z,50.62
2019-03-22T17:15:51.108Z,45.00
2019-03-22T17:16:51.066Z,39.38
2019-03-22T17:17:51.145Z,39.38
2019-03-22T17:18:51.035Z,39.38
2019-03-22T17:19:51.033Z,39.38
2019-03-22T17:20:51.051Z,39.38
2019-03-22T17:21:51.003Z,33.75
2019-03-22T17:22:51.000Z,33.75
2019-03-22T17:23:51.006Z,33.75
2019-03-22T17:24:51.972Z,33.75
2019-03-22T17:25:51.016Z,33.75
2019-03-22T17:26:53.046Z,28.12
2019-03-22T17:27:50.960Z,28.12
2019-03-22T17:28:50.954Z,28.12
2019-03-22T17:30:00.397Z,28.12
2019-03-22T17:30:51.334Z,28.12
2019-03-22T17:32:10.663Z,22.50
2019-03-22T17:34:00.313Z,16.88
2019-03-22T17:35:00.404Z,16.88
2019-03-22T17:36:00.401Z,16.88
2019-03-22T17:37:00.245Z,11.25
2019-03-22T17:38:00.267Z,11.25
2019-03-22T17:39:00.211Z,11.25
2019-03-22T17:40:00.243Z,5.62
2019-03-22T17:41:00.201Z,5.62
2019-03-22T17:42:00.197Z,5.62
2019-03-22T17:43:00.167Z,5.62
2019-03-22T17:44:00.167Z,5.62
2019-03-22T17:45:00.313Z,5.62
2019-03-22T17:46:00.146Z,5.62
2019-03-22T17:47:00.142Z,5.62
2019-03-22T17:48:00.160Z,5.62
2019-03-22T17:49:00.114Z,0.00
2019-03-22T17:50:00.161Z,0.00
2019-03-22T17:51:00.082Z,0.00
2019-03-22T17:52:00.102Z,0.00
2019-03-22T17:53:00.086Z,0.00
2019-03-22T17:54:00.075Z,0.00
2019-03-22T17:55:00.038Z,0.00
2019-03-22T17:56:00.031Z,0.00
2019-03-22T17:57:00.051Z,0.00
2019-03-22T17:58:00.040Z,0.00
2019-03-22T17:59:00.021Z,0.00
2019-03-22T17:59:59.990Z,0.00
2019-03-22T18:01:00.024Z,0.00
2019-03-22T18:01:59.966Z,0.00
2019-03-22T18:02:59.970Z,0.00
2019-03-22T18:03:59.968Z,0.00
2019-03-22T18:04:59.940Z,0.00
2019-03-22T18:05:59.970Z,0.00
2019-03-22T18:06:59.910Z,0.00
2019-03-22T18:07:59.941Z,0.00
2019-03-22T18:08:59.900Z,0.00
2019-03-22T18:09:59.882Z,0.00
2019-03-22T18:10:59.879Z,0.00
2019-03-22T18:12:07.486Z,0.00
2019-03-22T18:12:59.938Z,0.00
2019-03-22T18:13:59.902Z,0.00
2019-03-22T18:14:59.938Z,0.00
2019-03-22T18:15:59.830Z,0.00
2019-03-22T18:16:59.923Z,0.00
2019-03-22T18:17:59.840Z,0.00
2019-03-22T18:19:00.397Z,0.00
2019-03-22T18:19:59.775Z,0.00
2019-03-22T18:20:59.797Z,0.00
2019-03-22T18:21:59.794Z,0.00
2019-03-22T18:22:59.747Z,0.00
2019-03-22T18:23:59.758Z,0.00
2019-03-22T18:24:59.810Z,0.00
2019-03-22T18:25:59.921Z,0.00
2019-03-22T18:26:59.739Z,0.00
2019-03-22T18:27:59.727Z,0.00
2019-03-22T18:28:59.775Z,0.00
2019-03-22T18:29:59.711Z,0.00
2019-03-22T18:30:59.767Z,0.00
2019-03-22T18:32:00.397Z,0.00
2019-03-22T18:32:59.651Z,0.00
2019-03-22T18:33:59.729Z,0.00
2019-03-22T18:34:59.678Z,0.00
2019-03-22T18:35:59.669Z,0.00
2019-03-22T18:36:59.781Z,0.00
2019-03-22T18:37:59.638Z,0.00
2019-03-22T18:39:00.443Z,0.00
2019-03-22T18:40:00.440Z,0.00
2019-03-22T18:40:59.923Z,0.00
2019-03-22T18:42:00.366Z,0.00
2019-03-22T18:42:59.596Z,0.00
2019-03-22T18:43:59.534Z,0.00
2019-03-22T18:44:59.756Z,0.00
2019-03-22T18:45:59.543Z,0.00
2019-03-22T18:46:59.514Z,0.00
2019-03-22T18:47:59.497Z,0.00
2019-03-22T18:48:59.547Z,0.00
2019-03-22T18:49:59.524Z,0.00
2019-03-22T18:50:59.515Z,0.00
2019-03-22T18:51:59.444Z,0.00
2019-03-22T18:52:59.456Z,0.00
2019-03-22T18:53:59.469Z,0.00
2019-03-22T18:54:59.598Z,0.00
2019-03-22T18:55:59.459Z,0.00
2019-03-22T18:56:59.396Z,0.00
2019-03-22T18:57:59.378Z,0.00
2019-03-22T18:58:59.368Z,0.00
2019-03-22T18:59:59.976Z,0.00
